Time;durP1;ratioP1;P1;durP2;ratioP2;P2;SDS_P1;SDS_P2;PMS_P1;PMS_P2;Temp;Humidity;BMP_temperature;BMP_pressure;BME280_temperature;BME280_humidity;BME280_pressure;Samples;Min_cycle;Max_cycle;Signal;HPM_P1;HPM_P2
2023/09/25 00:00:07;;;;;;;0.65;0.50;;;;;;;21.91;40.00;101364.00;4516921;28;20028;-65
2023/09/25 00:02:19;;;;;;;0.50;0.50;;;;;;;21.93;40.16;101370.19;4515486;28;20053;-65
2023/09/25 00:04:29;;;;;;;0.57;0.57;;;;;;;21.94;40.25;101378.50;4500811;28;20069;-65
2023/09/25 00:06:40;;;;;;;1.52;0.50;;;;;;;21.82;39.89;101348.88;4514657;28;20034;-65
2023/09/25 00:08:50;;;;;;;0.50;0.50;;;;;;;21.91;39.74;101367.69;4517321;28;20068;-65
2023/09/25 00:11:01;;;;;;;0.60;0.60;;;;;;;21.93;40.00;101364.44;4516051;28;20037;-65
2023/09/25 00:13:11;;;;;;;0.60;0.52;;;;;;;21.94;39.99;101367.00;4515839;28;20418;-65
2023/09/25 00:15:21;;;;;;;0.70;0.50;;;;;;;21.92;39.92;101369.38;4515950;28;20037;-65
2023/09/25 00:17:32;;;;;;;1.38;0.60;;;;;;;21.88;40.04;101361.84;4516272;28;20040;-65
2023/09/25 00:19:42;;;;;;;0.52;0.52;;;;;;;21.91;40.42;101366.88;4516456;28;20101;-65
2023/09/25 00:21:53;;;;;;;0.50;0.50;;;;;;;21.88;40.08;101368.41;4514872;28;20038;-65
2023/09/25 00:24:03;;;;;;;0.50;0.50;;;;;;;21.93;39.67;101376.78;4515918;28;20042;-65
2023/09/25 00:26:14;;;;;;;0.65;0.50;;;;;;;21.92;39.69;101366.50;4516054;28;20025;-65
2023/09/25 00:28:31;;;;;;;0.60;0.60;;;;;;;21.87;39.29;101355.22;4516827;28;21116;-65
2023/09/25 00:30:41;;;;;;;0.50;0.47;;;;;;;21.88;39.86;101361.84;4503639;28;20094;-65
2023/09/25 00:32:52;;;;;;;0.63;0.50;;;;;;;21.89;39.69;101364.34;4515338;28;20935;-65
2023/09/25 00:35:07;;;;;;;0.65;0.50;;;;;;;21.89;39.54;101369.25;4515337;28;20029;-65
2023/09/25 00:37:17;;;;;;;0.50;0.50;;;;;;;21.85;39.29;101351.06;4500699;28;20063;-65
2023/09/25 00:39:28;;;;;;;0.50;0.50;;;;;;;21.89;39.65;101358.59;4515261;28;20087;-65
2023/09/25 00:41:38;;;;;;;0.82;0.50;;;;;;;21.88;39.28;101359.78;4516897;28;20506;-65
2023/09/25 00:43:50;;;;;;;0.60;0.60;;;;;;;21.81;39.41;101350.06;4500601;28;20045;-65
2023/09/25 00:46:01;;;;;;;0.40;0.40;;;;;;;21.85;39.40;101348.19;4498494;28;20514;-66
2023/09/25 00:48:26;;;;;;;0.73;0.60;;;;;;;21.88;39.63;101345.41;4516186;28;20041;-65
2023/09/25 00:50:36;;;;;;;0.70;0.65;;;;;;;21.84;39.27;101344.47;4515302;28;20030;-65
2023/09/25 00:52:47;;;;;;;0.50;0.50;;;;;;;21.88;39.02;101348.28;4499135;28;20066;-65
2023/09/25 00:54:59;;;;;;;0.60;0.60;;;;;;;21.88;39.99;101354.03;4513461;28;20466;-65
2023/09/25 00:57:11;;;;;;;0.55;0.55;;;;;;;21.82;39.35;101337.38;4497824;28;20044;-65
2023/09/25 00:59:21;;;;;;;1.38;0.77;;;;;;;21.88;39.39;101344.59;4515962;28;20037;-65
2023/09/25 01:01:33;;;;;;;0.75;0.50;;;;;;;21.88;39.34;101350.34;4514602;28;20041;-66
2023/09/25 01:03:43;;;;;;;0.50;0.50;;;;;;;21.83;39.65;101337.03;4498393;28;20172;-65
2023/09/25 01:05:54;;;;;;;0.50;0.50;;;;;;;21.85;39.33;101346.13;4515626;28;20088;-65
2023/09/25 01:08:06;;;;;;;0.68;0.60;;;;;;;21.86;39.09;101342.06;4481527;28;20039;-65
2023/09/25 01:10:17;;;;;;;0.40;0.40;;;;;;;21.86;39.56;101350.69;4515902;28;20026;-65
2023/09/25 01:12:28;;;;;;;0.60;0.47;;;;;;;21.86;39.70;101342.06;4515677;28;20042;-65
2023/09/25 01:14:38;;;;;;;0.50;0.50;;;;;;;21.81;39.77;101339.44;4501684;28;20030;-66
2023/09/25 01:16:49;;;;;;;0.50;0.50;;;;;;;21.82;40.01;101334.50;4503404;28;20129;-65
2023/09/25 01:18:59;;;;;;;0.70;0.60;;;;;;;21.82;40.16;101335.34;4501994;28;20035;-65
2023/09/25 01:21:11;;;;;;;1.05;0.40;;;;;;;21.83;39.79;101330.44;4516492;28;20037;-65
2023/09/25 01:23:21;;;;;;;0.80;0.60;;;;;;;21.83;40.44;101331.28;4514600;28;20068;-65
2023/09/25 01:25:32;;;;;;;0.50;0.50;;;;;;;21.85;39.74;101328.88;4501815;28;20040;-65
2023/09/25 01:27:44;;;;;;;0.75;0.60;;;;;;;21.86;40.20;101332.59;4515478;28;20048;-66
2023/09/25 01:29:55;;;;;;;0.93;0.60;;;;;;;21.77;39.94;101321.22;4513378;28;20176;-65
2023/09/25 01:32:05;;;;;;;0.57;0.52;;;;;;;21.82;40.40;101323.84;4497988;28;20030;-65
2023/09/25 01:34:16;;;;;;;0.50;0.50;;;;;;;21.84;40.18;101329.25;4491613;28;21024;-65
2023/09/25 01:36:28;;;;;;;0.57;0.52;;;;;;;21.81;40.07;101318.47;4504874;28;20042;-66
2023/09/25 01:38:38;;;;;;;0.50;0.50;;;;;;;21.83;39.74;101322.69;4506164;28;20030;-65
2023/09/25 01:40:48;;;;;;;0.50;0.50;;;;;;;21.82;39.77;101320.97;4514731;28;20041;-65
2023/09/25 01:42:59;;;;;;;0.50;0.50;;;;;;;21.83;39.92;101319.81;4498821;28;20100;-65
2023/09/25 01:45:11;;;;;;;0.50;0.50;;;;;;;21.83;39.71;101321.81;4514805;28;20344;-65
2023/09/25 01:47:22;;;;;;;0.50;0.50;;;;;;;21.81;39.85;101316.44;4499435;28;20125;-65
2023/09/25 01:49:33;;;;;;;0.52;0.50;;;;;;;21.81;39.58;101316.44;4513925;28;20112;-65
2023/09/25 01:51:44;;;;;;;0.50;0.50;;;;;;;21.81;39.60;101315.59;4506084;28;20137;-65
2023/09/25 01:53:54;;;;;;;0.50;0.50;;;;;;;21.81;39.64;101322.19;4514756;28;20814;-66
2023/09/25 01:56:12;;;;;;;0.40;0.40;;;;;;;21.81;39.45;101310.69;4514791;28;20065;-65
2023/09/25 01:58:22;;;;;;;0.50;0.50;;;;;;;21.81;39.75;101312.72;4507296;28;20029;-66
2023/09/25 02:00:33;;;;;;;0.55;0.55;;;;;;;21.79;39.89;101313.06;4499314;28;20414;-65
2023/09/25 02:02:43;;;;;;;0.50;0.50;;;;;;;21.80;39.51;101317.63;4513880;28;20117;-66
2023/09/25 02:04:54;;;;;;;0.50;0.50;;;;;;;21.68;39.73;101290.88;4515129;28;20038;-65
2023/09/25 02:07:04;;;;;;;0.63;0.60;;;;;;;21.77;39.66;101303.97;4515557;28;20097;-65
2023/09/25 02:09:14;;;;;;;0.50;0.50;;;;;;;21.79;40.02;101304.44;4513746;28;20490;-65
2023/09/25 02:11:25;;;;;;;0.40;0.40;;;;;;;21.74;39.84;101298.91;4500781;28;20065;-66
2023/09/25 02:13:35;;;;;;;0.50;0.50;;;;;;;21.80;39.73;101303.25;4500148;28;20138;-66
2023/09/25 02:15:47;;;;;;;0.65;0.50;;;;;;;21.77;39.24;101300.28;4514445;28;20071;-66
2023/09/25 02:17:57;;;;;;;0.52;0.50;;;;;;;21.78;38.84;101305.66;4512867;28;20038;-66
2023/09/25 02:20:18;;;;;;;0.40;0.40;;;;;;;21.77;39.15;101309.72;4483807;28;20035;-65
2023/09/25 02:22:29;;;;;;;0.55;0.55;;;;;;;21.77;39.25;101303.16;4516197;28;20037;-65
2023/09/25 02:24:40;;;;;;;1.60;0.60;;;;;;;21.76;39.54;101296.56;4502162;28;20395;-66
2023/09/25 02:26:50;;;;;;;0.70;0.47;;;;;;;21.76;39.23;101308.06;4500103;28;20455;-65
2023/09/25 02:29:01;;;;;;;0.77;0.60;;;;;;;21.76;39.46;101305.19;4505598;28;20108;-65
2023/09/25 02:31:13;;;;;;;0.80;0.60;;;;;;;21.76;39.39;101302.31;4513931;28;20809;-65
2023/09/25 02:33:23;;;;;;;0.40;0.40;;;;;;;21.76;39.14;101305.19;4498309;28;20880;-66
2023/09/25 02:35:34;;;;;;;0.50;0.50;;;;;;;21.75;38.89;101306.38;4513830;28;20053;-65
2023/09/25 02:37:44;;;;;;;0.50;0.50;;;;;;;21.77;38.62;101303.16;4505478;28;20030;-66
2023/09/25 02:39:55;;;;;;;0.50;0.50;;;;;;;21.75;38.93;101306.38;4505830;28;20054;-66
2023/09/25 02:42:05;;;;;;;0.50;0.50;;;;;;;21.76;38.47;101307.19;4513853;28;20532;-66
2023/09/25 02:44:16;;;;;;;0.50;0.50;;;;;;;21.74;38.84;101298.09;4495198;28;20531;-66
2023/09/25 02:46:26;;;;;;;0.40;0.40;;;;;;;21.77;39.24;101311.78;4496216;28;20073;-66
2023/09/25 02:48:37;;;;;;;0.80;0.50;;;;;;;21.74;39.45;101301.78;4500316;28;20026;-66
2023/09/25 02:50:49;;;;;;;0.60;0.50;;;;;;;21.76;39.61;101302.31;4498806;28;20034;-66
2023/09/25 02:52:59;;;;;;;0.50;0.50;;;;;;;21.75;39.38;101303.50;4505986;28;20042;-66
2023/09/25 02:55:11;;;;;;;0.50;0.50;;;;;;;21.71;39.20;101295.91;4500563;28;20038;-65
2023/09/25 02:57:21;;;;;;;0.40;0.40;;;;;;;21.74;39.42;101304.66;4513314;28;20046;-66
2023/09/25 02:59:31;;;;;;;0.70;0.40;;;;;;;21.75;39.07;101302.63;4512855;28;20029;-66
2023/09/25 03:01:42;;;;;;;0.55;0.50;;;;;;;21.71;39.09;101296.75;4504574;28;20044;-65
2023/09/25 03:03:52;;;;;;;0.43;0.40;;;;;;;21.70;39.06;101303.72;4502059;28;20041;-66
2023/09/25 03:06:03;;;;;;;0.45;0.40;;;;;;;21.73;39.56;101305.84;4496838;28;20093;-66
2023/09/25 03:08:13;;;;;;;0.40;0.40;;;;;;;21.72;39.71;101306.22;4500989;28;20041;-66
2023/09/25 03:10:23;;;;;;;0.50;0.47;;;;;;;21.73;39.38;101303.00;4498729;28;20030;-66
2023/09/25 03:12:34;;;;;;;0.50;0.50;;;;;;;21.72;39.46;101307.03;4512466;28;20950;-66
2023/09/25 03:14:44;;;;;;;0.50;0.50;;;;;;;21.73;39.33;101313.63;4513006;28;21286;-66
2023/09/25 03:16:55;;;;;;;0.32;0.32;;;;;;;21.72;39.80;101307.03;4505215;28;20386;-65
2023/09/25 03:19:05;;;;;;;0.40;0.40;;;;;;;21.71;39.51;101299.63;4498857;28;20026;-66
2023/09/25 03:21:17;;;;;;;0.55;0.50;;;;;;;21.72;39.47;101309.91;4512525;28;20037;-66
2023/09/25 03:23:27;;;;;;;0.70;0.60;;;;;;;21.67;39.39;101300.69;4512306;28;20081;-66
2023/09/25 03:25:40;;;;;;;0.50;0.50;;;;;;;21.73;39.50;101311.59;4499084;28;20069;-66
2023/09/25 03:27:51;;;;;;;0.50;0.50;;;;;;;21.70;39.77;101306.59;4505251;28;20641;-65
2023/09/25 03:30:02;;;;;;;0.55;0.50;;;;;;;21.72;39.39;101311.97;4511363;28;20030;-66
2023/09/25 03:32:13;;;;;;;0.73;0.57;;;;;;;21.72;39.76;101312.78;4495500;28;20180;-66
2023/09/25 03:34:23;;;;;;;0.50;0.50;;;;;;;21.66;39.54;101290.41;4514949;28;20040;-66
2023/09/25 03:36:34;;;;;;;0.60;0.60;;;;;;;21.66;39.66;101296.97;4500459;28;20094;-66
2023/09/25 03:38:44;;;;;;;1.42;0.57;;;;;;;21.71;39.63;101307.41;4505247;28;20042;-66
2023/09/25 03:40:55;;;;;;;0.55;0.55;;;;;;;21.68;40.13;101300.34;4506054;28;20082;-65
2023/09/25 03:43:06;;;;;;;0.70;0.50;;;;;;;21.69;40.00;101310.63;4506224;28;20037;-66
2023/09/25 03:45:17;;;;;;;0.50;0.50;;;;;;;21.70;40.12;101309.44;4514124;28;20517;-66
2023/09/25 03:47:27;;;;;;;0.40;0.40;;;;;;;21.70;39.91;101320.09;4513609;28;20025;-66
2023/09/25 03:49:39;;;;;;;0.70;0.50;;;;;;;21.69;39.67;101313.50;4498401;28;20031;-66
2023/09/25 03:51:49;;;;;;;0.40;0.40;;;;;;;21.67;40.02;101318.78;4504958;28;20096;-65
2023/09/25 03:54:00;;;;;;;1.20;0.50;;;;;;;21.69;40.20;101319.25;4502570;28;20041;-66
2023/09/25 03:56:10;;;;;;;0.98;0.40;;;;;;;21.66;40.02;101322.03;4498093;28;20034;-66
2023/09/25 03:58:21;;;;;;;0.65;0.55;;;;;;;21.62;40.12;101313.28;4499276;28;20441;-65
2023/09/25 04:00:34;;;;;;;0.40;0.40;;;;;;;21.65;39.75;101314.59;4513708;28;20092;-65
2023/09/25 04:02:45;;;;;;;0.50;0.50;;;;;;;21.67;39.73;101324.53;4512017;28;20037;-65
2023/09/25 04:04:55;;;;;;;0.50;0.50;;;;;;;21.63;40.24;101320.69;4512850;28;20034;-66
2023/09/25 04:07:06;;;;;;;0.38;0.38;;;;;;;21.67;40.06;101326.56;4512980;28;20061;-65
2023/09/25 04:09:16;;;;;;;0.50;0.50;;;;;;;21.67;39.97;101333.16;4515131;28;20065;-66
2023/09/25 04:11:27;;;;;;;0.40;0.40;;;;;;;21.66;39.61;101330.66;4515347;28;20042;-66
2023/09/25 04:13:39;;;;;;;0.82;0.50;;;;;;;21.61;40.21;101322.25;4502296;28;20034;-65
2023/09/25 04:15:50;;;;;;;0.50;0.50;;;;;;;21.64;40.05;101335.91;4516117;28;20069;-66
2023/09/25 04:18:01;;;;;;;0.50;0.50;;;;;;;21.61;39.85;101334.56;4516306;28;20037;-66
2023/09/25 04:20:17;;;;;;;0.47;0.47;;;;;;;21.67;40.34;101336.03;4517500;28;20033;-66
2023/09/25 04:22:28;;;;;;;0.82;0.50;;;;;;;21.67;40.23;101353.28;4515976;28;20025;-66
2023/09/25 04:24:38;;;;;;;0.52;0.52;;;;;;;21.64;40.26;101339.63;4514522;28;20049;-66
2023/09/25 04:26:48;;;;;;;0.60;0.60;;;;;;;21.65;40.01;101334.69;4506298;28;20129;-66
2023/09/25 04:28:59;;;;;;;0.77;0.50;;;;;;;21.60;39.81;101329.16;4515703;28;20026;-66
2023/09/25 04:31:10;;;;;;;0.50;0.50;;;;;;;21.62;40.28;101344.88;4516859;28;20045;-66
2023/09/25 04:33:21;;;;;;;0.82;0.60;;;;;;;21.62;39.84;101344.88;4516064;28;21590;-66
2023/09/25 04:35:31;;;;;;;0.47;0.47;;;;;;;21.63;40.09;101339.94;4514454;28;20045;-65
2023/09/25 04:37:42;;;;;;;0.60;0.60;;;;;;;21.63;40.26;101342.81;4515266;28;20073;-66
2023/09/25 04:39:53;;;;;;;0.95;0.80;;;;;;;21.65;40.04;101351.94;4516036;28;20045;-66
2023/09/25 04:42:03;;;;;;;0.40;0.40;;;;;;;21.65;39.56;101357.69;4500802;28;20050;-65
2023/09/25 04:44:14;;;;;;;0.80;0.50;;;;;;;21.60;39.38;101350.13;4515077;28;20440;-66
2023/09/25 04:46:24;;;;;;;0.60;0.60;;;;;;;21.59;39.84;101357.09;4502663;28;21126;-65
2023/09/25 04:48:36;;;;;;;1.80;0.60;;;;;;;21.60;39.49;101358.75;4516442;28;20057;-65
2023/09/25 04:50:47;;;;;;;0.60;0.60;;;;;;;21.64;39.85;101356.00;4514918;28;20037;-65
2023/09/25 04:52:57;;;;;;;0.63;0.60;;;;;;;21.62;39.95;101365.00;4499656;28;20050;-66
2023/09/25 04:55:10;;;;;;;1.55;0.70;;;;;;;21.62;39.80;101365.00;4514623;28;20034;-66
2023/09/25 04:57:21;;;;;;;0.70;0.70;;;;;;;21.58;39.96;101351.69;4516065;28;20040;-65
2023/09/25 04:59:31;;;;;;;0.60;0.60;;;;;;;21.58;39.72;101352.50;4516727;28;20743;-65
2023/09/25 05:01:42;;;;;;;0.60;0.60;;;;;;;21.61;40.28;101359.59;4514998;28;20018;-66
2023/09/25 05:03:52;;;;;;;0.65;0.65;;;;;;;21.57;39.59;101356.59;4515640;28;20037;-65
2023/09/25 05:06:03;;;;;;;0.63;0.60;;;;;;;21.62;39.69;101361.25;4498834;28;20073;-65
2023/09/25 05:08:13;;;;;;;0.93;0.65;;;;;;;21.57;40.11;101355.75;4513084;28;20440;-65
2023/09/25 05:10:25;;;;;;;0.80;0.50;;;;;;;21.61;40.01;101363.28;4514770;28;20037;-66
2023/09/25 05:12:40;;;;;;;0.50;0.50;;;;;;;21.58;39.88;101366.88;4496789;28;20120;-66
2023/09/25 05:14:50;;;;;;;0.55;0.55;;;;;;;21.60;39.83;101355.03;4513581;28;20129;-66
2023/09/25 05:17:01;;;;;;;0.60;0.60;;;;;;;21.57;39.79;101356.59;4514841;28;20033;-66
2023/09/25 05:19:11;;;;;;;0.52;0.52;;;;;;;21.60;39.84;101357.91;4516530;28;20030;-65
2023/09/25 05:21:21;;;;;;;0.50;0.50;;;;;;;21.54;39.88;101348.69;4514309;28;20113;-65
2023/09/25 05:23:32;;;;;;;0.50;0.50;;;;;;;21.58;39.36;101364.00;4515513;28;20124;-65
2023/09/25 05:25:42;;;;;;;0.65;0.50;;;;;;;21.45;39.97;101347.97;4500155;28;20040;-65
2023/09/25 05:27:55;;;;;;;0.60;0.40;;;;;;;21.61;39.87;101374.78;4513803;28;20104;-65
2023/09/25 05:30:11;;;;;;;0.88;0.57;;;;;;;21.60;39.63;101370.25;4514849;28;20069;-65
2023/09/25 05:32:21;;;;;;;0.55;0.55;;;;;;;21.56;39.89;101369.28;4514067;28;20912;-66
2023/09/25 05:34:32;;;;;;;1.10;0.40;;;;;;;21.47;39.66;101356.22;4514481;28;20117;-65
2023/09/25 05:36:42;;;;;;;0.57;0.57;;;;;;;21.55;39.63;101364.72;4514939;28;20041;-65
2023/09/25 05:38:55;;;;;;;0.50;0.50;;;;;;;21.57;39.91;101370.94;4515477;28;20486;-65
2023/09/25 05:41:05;;;;;;;0.73;0.50;;;;;;;21.57;39.89;101370.94;4515107;28;20018;-65
2023/09/25 05:43:17;;;;;;;0.63;0.55;;;;;;;21.52;39.54;101359.69;4515056;28;20049;-65
2023/09/25 05:45:27;;;;;;;0.50;0.50;;;;;;;21.56;40.12;101372.16;4495933;28;20050;-66
2023/09/25 05:47:38;;;;;;;0.57;0.57;;;;;;;21.56;40.09;101375.03;4514584;28;20390;-67
2023/09/25 05:49:49;;;;;;;0.40;0.40;;;;;;;21.54;40.00;101370.81;4513852;28;20037;-65
2023/09/25 05:51:59;;;;;;;0.60;0.50;;;;;;;21.58;40.18;101386.97;4513444;28;20046;-66
2023/09/25 05:54:10;;;;;;;0.60;0.60;;;;;;;21.57;40.17;101379.56;4514294;28;20045;-66
2023/09/25 05:56:21;;;;;;;0.50;0.50;;;;;;;21.53;39.86;101378.59;4514841;28;20026;-65
2023/09/25 05:58:32;;;;;;;0.50;0.50;;;;;;;21.56;40.46;101383.66;4515136;28;20092;-65
2023/09/25 06:00:46;;;;;;;0.60;0.60;;;;;;;21.54;40.15;101380.28;4514047;28;20045;-65
2023/09/25 06:02:57;;;;;;;0.50;0.50;;;;;;;21.54;40.07;101374.53;4515625;28;20031;-65
2023/09/25 06:05:08;;;;;;;1.23;0.52;;;;;;;21.54;40.17;101373.69;4515140;28;20049;-65
2023/09/25 06:07:19;;;;;;;0.63;0.50;;;;;;;21.54;40.54;101371.66;4496860;28;20890;-65
2023/09/25 06:09:30;;;;;;;0.60;0.57;;;;;;;21.55;40.70;101387.69;4512607;28;20037;-65
2023/09/25 06:11:42;;;;;;;0.80;0.50;;;;;;;21.55;40.67;101387.69;4511942;28;20049;-65
2023/09/25 06:13:55;;;;;;;0.63;0.60;;;;;;;21.55;40.57;101392.63;4513684;28;20184;-65
2023/09/25 06:16:06;;;;;;;0.90;0.63;;;;;;;21.55;41.12;101381.13;4513467;28;20034;-65
2023/09/25 06:18:17;;;;;;;1.15;0.70;;;;;;;21.55;41.01;101381.13;4514662;28;20506;-66
2023/09/25 06:20:28;;;;;;;0.30;0.30;;;;;;;21.53;43.57;101378.59;4515157;28;20117;-65
2023/09/25 06:22:38;;;;;;;0.40;0.40;;;;;;;21.55;46.59;101386.88;4515605;28;20614;-65
2023/09/25 06:24:49;;;;;;;0.30;0.30;;;;;;;21.55;47.50;101381.94;4514597;28;20568;-66
2023/09/25 06:26:59;;;;;;;1.10;0.50;;;;;;;21.56;47.91;101380.78;4513748;28;20042;-66
2023/09/25 06:29:10;;;;;;;0.40;0.40;;;;;;;21.56;47.14;101388.53;4514168;28;20073;-64
2023/09/25 06:31:23;;;;;;;0.38;0.38;;;;;;;21.59;47.56;101393.56;4512751;28;20046;-64
2023/09/25 06:33:34;;;;;;;0.40;0.40;;;;;;;21.57;47.38;101391.06;4513819;28;20038;-64
2023/09/25 06:35:44;;;;;;;0.38;0.38;;;;;;;21.58;47.91;101394.78;4497887;28;21016;-64
2023/09/25 06:37:55;;;;;;;0.40;0.40;;;;;;;21.56;47.43;101389.41;4512867;28;20061;-64
2023/09/25 06:40:09;;;;;;;1.30;0.50;;;;;;;21.60;47.40;101401.00;4514472;28;20475;-64
2023/09/25 06:42:19;;;;;;;0.65;0.40;;;;;;;21.57;47.35;101396.81;4514073;28;20038;-64
2023/09/25 06:44:30;;;;;;;0.65;0.55;;;;;;;21.58;47.79;101389.84;4514931;28;20368;-64
2023/09/25 06:46:43;;;;;;;1.13;0.57;;;;;;;21.59;47.14;101400.19;4497680;28;20065;-64
2023/09/25 06:48:53;;;;;;;0.47;0.47;;;;;;;21.55;47.17;101393.44;4513562;28;20083;-64
2023/09/25 06:51:04;;;;;;;0.77;0.57;;;;;;;21.60;47.20;101398.97;4513476;28;20551;-64
2023/09/25 06:53:14;;;;;;;0.80;0.60;;;;;;;21.56;47.01;101388.53;4513629;28;20051;-64
2023/09/25 06:55:24;;;;;;;0.63;0.60;;;;;;;21.59;46.18;101388.69;4512720;28;20026;-64
2023/09/25 06:57:35;;;;;;;0.70;0.50;;;;;;;21.60;46.46;101401.84;4505009;28;20045;-64
2023/09/25 06:59:46;;;;;;;0.55;0.55;;;;;;;21.61;46.94;101397.75;4514350;28;21341;-64
2023/09/25 07:01:57;;;;;;;0.60;0.60;;;;;;;21.53;46.98;101380.63;4513626;28;20034;-64
2023/09/25 07:04:07;;;;;;;0.75;0.52;;;;;;;21.60;46.84;101401.84;4503984;28;20038;-64
2023/09/25 07:06:18;;;;;;;0.57;0.40;;;;;;;21.62;46.78;101398.63;4503347;28;20117;-64
2023/09/25 07:08:30;;;;;;;0.65;0.63;;;;;;;21.61;46.33;101402.69;4512988;28;20088;-64
2023/09/25 07:10:48;;;;;;;0.50;0.50;;;;;;;21.59;45.83;101394.44;4495995;28;20033;-65
2023/09/25 07:12:59;;;;;;;0.60;0.60;;;;;;;21.58;46.47;101404.22;4513771;28;20615;-65
2023/09/25 07:15:10;;;;;;;0.50;0.50;;;;;;;21.59;46.69;101403.03;4513890;28;20052;-65
2023/09/25 07:17:20;;;;;;;0.40;0.40;;;;;;;21.60;46.57;101401.84;4513548;28;20042;-65
2023/09/25 07:19:31;;;;;;;0.60;0.40;;;;;;;21.60;46.97;101413.34;4497334;28;20044;-65
2023/09/25 07:21:41;;;;;;;0.40;0.40;;;;;;;21.62;46.55;101404.34;4515047;28;20038;-65
2023/09/25 07:23:52;;;;;;;0.60;0.45;;;;;;;21.60;47.04;101412.47;4497569;28;20079;-65
2023/09/25 07:26:07;;;;;;;0.40;0.40;;;;;;;21.60;47.06;101410.47;4513355;28;20038;-65
2023/09/25 07:28:17;;;;;;;1.00;0.50;;;;;;;21.60;47.05;101407.59;4513236;28;20044;-65
2023/09/25 07:30:28;;;;;;;0.45;0.45;;;;;;;21.59;47.32;101405.91;4495842;28;20037;-65
2023/09/25 07:32:40;;;;;;;0.40;0.40;;;;;;;21.56;47.18;101406.63;4511697;28;20051;-65
2023/09/25 07:34:52;;;;;;;0.50;0.50;;;;;;;21.62;47.20;101408.09;4513079;28;20042;-65
2023/09/25 07:37:04;;;;;;;0.52;0.50;;;;;;;21.62;47.17;101412.97;4512165;28;20030;-65
2023/09/25 07:39:18;;;;;;;0.43;0.40;;;;;;;21.57;47.27;101405.44;4513464;28;20040;-65
2023/09/25 07:41:28;;;;;;;0.75;0.40;;;;;;;21.62;47.38;101410.09;4512379;28;20095;-65
2023/09/25 07:43:40;;;;;;;0.50;0.50;;;;;;;21.62;47.59;101413.81;4513068;28;20128;-64
2023/09/25 07:45:52;;;;;;;0.47;0.40;;;;;;;21.58;47.82;101397.66;4516441;28;20056;-65
2023/09/25 07:48:03;;;;;;;0.40;0.40;;;;;;;21.57;47.82;101408.31;4516770;28;20755;-64
2023/09/25 07:50:13;;;;;;;0.50;0.50;;;;;;;21.57;47.82;101399.69;4502158;28;20089;-64
2023/09/25 07:52:24;;;;;;;0.50;0.50;;;;;;;21.57;47.82;101408.31;4515211;28;20053;-64
2023/09/25 07:54:34;;;;;;;0.40;0.40;;;;;;;21.58;47.96;101397.66;4515741;28;20049;-66
2023/09/25 07:56:47;;;;;;;0.50;0.50;;;;;;;21.62;48.00;101416.69;4515087;28;20532;-64
2023/09/25 07:58:57;;;;;;;0.50;0.50;;;;;;;21.61;47.36;101409.25;4508902;28;20118;-65
2023/09/25 08:01:10;;;;;;;0.40;0.40;;;;;;;21.62;47.75;101416.69;4516904;28;20038;-64
2023/09/25 08:03:22;;;;;;;0.80;0.52;;;;;;;21.50;47.95;101390.78;4515549;28;20030;-65
2023/09/25 08:05:34;;;;;;;0.40;0.40;;;;;;;21.53;48.22;101397.88;4516413;28;20037;-64
2023/09/25 08:07:49;;;;;;;0.30;0.30;;;;;;;21.63;48.37;101409.75;4516172;28;20042;-65
2023/09/25 08:10:00;;;;;;;0.40;0.40;;;;;;;21.60;48.15;101401.00;4500897;28;20098;-65
2023/09/25 08:12:10;;;;;;;0.40;0.40;;;;;;;21.58;48.06;101389.84;4514430;28;20036;-65
2023/09/25 08:14:21;;;;;;;0.50;0.40;;;;;;;21.61;47.98;101400.63;4498218;28;20093;-64
2023/09/25 08:16:32;;;;;;;0.40;0.40;;;;;;;21.62;47.89;101404.34;4514817;28;20041;-65
2023/09/25 08:18:42;;;;;;;0.40;0.38;;;;;;;21.56;48.25;101400.88;4515388;28;20032;-65
2023/09/25 08:20:53;;;;;;;0.40;0.40;;;;;;;21.50;48.56;101390.78;4497514;28;20527;-65
2023/09/25 08:23:04;;;;;;;0.50;0.50;;;;;;;21.58;48.53;101398.47;4515539;28;20057;-65
2023/09/25 08:25:15;;;;;;;0.70;0.50;;;;;;;21.60;47.88;101401.84;4500623;28;20034;-65
2023/09/25 08:27:25;;;;;;;0.40;0.40;;;;;;;21.60;47.72;101398.97;4514556;28;20045;-64
2023/09/25 08:29:35;;;;;;;0.57;0.50;;;;;;;21.58;47.79;101398.47;4515965;28;20049;-65
2023/09/25 08:31:47;;;;;;;0.90;0.60;;;;;;;21.61;47.85;101403.50;4514697;28;20379;-65
2023/09/25 08:33:58;;;;;;;0.40;0.40;;;;;;;21.62;48.50;101399.47;4514500;28;20042;-65
2023/09/25 08:36:12;;;;;;;0.57;0.40;;;;;;;21.63;48.43;101408.91;4515285;28;20017;-65
2023/09/25 08:38:22;;;;;;;0.40;0.40;;;;;;;21.57;47.80;101385.31;4515985;28;20037;-64
2023/09/25 08:40:36;;;;;;;0.50;0.50;;;;;;;21.61;48.05;101397.75;4514071;28;20033;-65
2023/09/25 08:42:47;;;;;;;0.38;0.38;;;;;;;21.60;48.32;101389.50;4516018;28;20040;-65
2023/09/25 08:45:03;;;;;;;1.65;0.50;;;;;;;21.58;48.02;101384.13;4515014;28;20060;-65
2023/09/25 08:47:13;;;;;;;0.88;0.60;;;;;;;21.56;47.78;101377.06;4515275;28;20033;-65
2023/09/25 08:49:24;;;;;;;0.60;0.47;;;;;;;21.60;47.57;101396.09;4490310;28;20035;-65
2023/09/25 08:51:37;;;;;;;0.45;0.45;;;;;;;21.56;47.37;101377.06;4513784;28;20112;-65
2023/09/25 08:53:47;;;;;;;0.50;0.40;;;;;;;21.58;47.76;101384.13;4513781;28;20125;-65
2023/09/25 08:55:58;;;;;;;0.73;0.50;;;;;;;21.56;47.53;101382.81;4513861;28;20113;-65
2023/09/25 08:58:08;;;;;;;0.60;0.60;;;;;;;21.62;47.58;101396.59;4516086;28;20030;-65
2023/09/25 09:00:19;;;;;;;0.45;0.40;;;;;;;21.60;47.49;101398.97;4499519;28;20030;-65
2023/09/25 09:02:30;;;;;;;0.63;0.60;;;;;;;21.61;48.19;101402.69;4513732;28;20040;-65
2023/09/25 09:04:41;;;;;;;0.40;0.40;;;;;;;21.62;47.58;101410.09;4506818;28;20107;-68
2023/09/25 09:06:51;;;;;;;0.68;0.50;;;;;;;21.61;47.32;101403.50;4514853;28;20479;-65
2023/09/25 09:09:02;;;;;;;0.40;0.32;;;;;;;21.60;47.50;101384.59;4514364;28;20041;-65
2023/09/25 09:11:13;;;;;;;0.60;0.60;;;;;;;21.59;48.12;101393.56;4514564;28;20040;-65
2023/09/25 09:13:23;;;;;;;0.40;0.40;;;;;;;21.60;48.09;101401.84;4514549;28;20046;-65
2023/09/25 09:15:34;;;;;;;0.68;0.43;;;;;;;21.58;47.68;101392.72;4500939;28;20546;-65
2023/09/25 09:17:45;;;;;;;0.40;0.40;;;;;;;21.61;47.15;101394.06;4499437;28;20114;-65
2023/09/25 09:19:55;;;;;;;0.40;0.40;;;;;;;21.60;47.26;101384.59;4514692;28;20372;-65
2023/09/25 09:22:08;;;;;;;0.77;0.40;;;;;;;21.62;47.22;101387.97;4514619;28;20068;-65
2023/09/25 09:24:22;;;;;;;0.80;0.52;;;;;;;21.58;46.41;101383.28;4506732;28;20057;-66
2023/09/25 09:26:32;;;;;;;0.60;0.60;;;;;;;21.58;46.75;101386.97;4514639;28;21564;-65
2023/09/25 09:28:43;;;;;;;0.45;0.40;;;;;;;21.60;47.00;101384.59;4514803;28;20022;-65
2023/09/25 09:30:56;;;;;;;0.88;0.52;;;;;;;21.61;46.69;101379.72;4515075;28;20041;-65
2023/09/25 09:33:10;;;;;;;0.70;0.50;;;;;;;21.61;46.52;101374.78;4514807;28;20037;-65
2023/09/25 09:35:25;;;;;;;0.40;0.40;;;;;;;21.58;47.27;101378.38;4515590;28;20037;-65
2023/09/25 09:37:37;;;;;;;1.20;0.60;;;;;;;21.60;46.86;101380.88;4505961;28;20022;-65
2023/09/25 09:39:52;;;;;;;1.23;0.60;;;;;;;21.60;47.28;101383.75;4513820;28;20080;-65
2023/09/25 09:42:05;;;;;;;0.47;0.40;;;;;;;21.61;47.68;101380.53;4513820;28;20573;-65
2023/09/25 09:44:15;;;;;;;0.80;0.60;;;;;;;21.60;47.03;101364.50;4498789;28;20576;-65
2023/09/25 09:46:28;;;;;;;0.73;0.50;;;;;;;21.57;46.80;101362.34;4514171;28;20045;-65
2023/09/25 09:48:39;;;;;;;0.88;0.50;;;;;;;21.62;47.01;101370.72;4515355;28;20029;-65
2023/09/25 09:50:59;;;;;;;0.50;0.50;;;;;;;21.57;47.37;101356.59;4514690;28;20157;-64
2023/09/25 09:53:10;;;;;;;0.75;0.52;;;;;;;21.58;47.12;101352.50;4514601;28;20069;-65
2023/09/25 09:55:22;;;;;;;0.60;0.50;;;;;;;21.62;47.71;101364.13;4513691;28;20038;-65
2023/09/25 09:57:32;;;;;;;0.57;0.52;;;;;;;21.55;47.62;101358.16;4514544;28;20030;-65
2023/09/25 09:59:42;;;;;;;0.40;0.40;;;;;;;21.58;47.51;101352.50;4501273;28;20046;-64
2023/09/25 10:01:54;;;;;;;0.60;0.57;;;;;;;21.61;46.29;101366.16;4513160;28;20034;-65
2023/09/25 10:04:05;;;;;;;1.10;0.60;;;;;;;21.56;46.82;101337.69;4514226;28;20037;-65
2023/09/25 10:06:16;;;;;;;0.50;0.50;;;;;;;21.59;47.48;101357.09;4513180;28;20034;-65
2023/09/25 10:08:27;;;;;;;0.50;0.50;;;;;;;21.55;45.93;101341.75;4500177;28;20030;-65